Time;durP1;ratioP1;P1;durP2;ratioP2;P2;SDS_P1;SDS_P2;PMS_P1;PMS_P2;Temp;Humidity;BMP_temperature;BMP_pressure;BME280_temperature;BME280_humidity;BME280_pressure;Samples;Min_cycle;Max_cycle;Signal;HPM_P1;HPM_P2
2022/12/14 00:00:47;;;;;;;;;;;;;;;1.95;nan;101114.06;5007269;28;19924;-31
2022/12/14 00:03:13;;;;;;;;;;;;;;;1.95;nan;101118.53;5007551;28;20008;-31
2022/12/14 00:05:38;;;;;;;;;;;;;;;1.95;nan;101107.94;5007455;28;20008;-31
2022/12/14 00:08:03;;;;;;;;;;;;;;;1.92;nan;101101.22;5005832;28;19944;-31
2022/12/14 00:10:30;;;;;;;;;;;;;;;1.87;nan;101102.78;5004898;28;19949;-31
2022/12/14 00:12:56;;;;;;;;;;;;;;;1.83;nan;101094.41;5006213;28;19918;-31
2022/12/14 00:15:21;;;;;;;;;;;;;;;1.83;nan;101097.03;5007729;28;19924;-31
2022/12/14 00:17:47;;;;;;;;;;;;;;;1.81;nan;101091.13;5007668;28;19921;-31
2022/12/14 00:20:12;;;;;;;;;;;;;;;1.81;nan;101091.13;5007125;28;19921;-31
2022/12/14 00:22:37;;;;;;;;;;;;;;;1.79;nan;101087.81;5006275;28;20020;-31
2022/12/14 00:25:03;;;;;;;;;;;;;;;1.77;nan;101088.00;5006007;28;20004;-31
2022/12/14 00:27:28;;;;;;;;;;;;;;;1.77;nan;101089.81;5005377;28;19960;-31
2022/12/14 00:29:53;;;;;;;;;;;;;;;1.74;nan;101085.72;5006882;28;19918;-31
2022/12/14 00:32:19;;;;;;;;;;;;;;;1.73;nan;101083.25;5006460;28;19921;-31
2022/12/14 00:34:44;;;;;;;;;;;;;;;1.69;nan;101082.00;5006274;28;19921;-31
2022/12/14 00:37:10;;;;;;;;;;;;;;;1.65;nan;101081.53;5007125;28;19925;-31
2022/12/14 00:39:35;;;;;;;;;;;;;;;1.62;nan;101076.63;5007354;28;19942;-31
2022/12/14 00:42:00;;;;;;;;;;;;;;;1.61;nan;101076.78;5007404;28;20370;-31
2022/12/14 00:44:26;;;;;;;;;;;;;;;1.60;nan;101077.78;5006718;28;19918;-31
2022/12/14 00:46:51;;;;;;;;;;;;;;;1.58;nan;101087.72;5006665;28;19948;-31
2022/12/14 00:49:16;;;;;;;;;;;;;;;1.60;nan;101094.44;5006996;28;19925;-31
2022/12/14 00:51:42;;;;;;;;;;;;;;;1.58;nan;101095.63;5007389;28;20157;-31
2022/12/14 00:54:07;;;;;;;;;;;;;;;1.55;nan;101094.19;5006701;28;20316;-31
2022/12/14 00:56:32;;;;;;;;;;;;;;;1.54;nan;101089.91;5006153;28;20272;-31
2022/12/14 00:58:58;;;;;;;;;;;;;;;1.50;nan;101091.28;5007169;28;19925;-31
2022/12/14 01:01:23;;;;;;;;;;;;;;;1.48;nan;101096.72;5006673;28;20015;-31
2022/12/14 01:03:49;;;;;;;;;;;;;;;1.46;nan;101088.19;5005533;28;19924;-31
2022/12/14 01:06:16;;;;;;;;;;;;;;;1.45;nan;101094.47;5007324;28;19928;-31
2022/12/14 01:08:41;;;;;;;;;;;;;;;1.45;nan;101088.34;5004877;28;20273;-31
2022/12/14 01:11:07;;;;;;;;;;;;;;;1.42;nan;101084.22;5007172;28;19925;-31
2022/12/14 01:13:33;;;;;;;;;;;;;;;1.42;nan;101086.06;5006049;28;20343;-31
2022/12/14 01:16:06;;;;;;;;;;;;;;;1.41;nan;101095.78;5006646;28;19971;-31
2022/12/14 01:18:33;;;;;;;;;;;;;;;1.40;nan;101095.97;5006357;28;19925;-31
2022/12/14 01:21:18;;;;;;;;;;;;;;;1.39;nan;101089.06;5006289;28;19959;-31
2022/12/14 01:23:44;;;;;;;;;;;;;;;1.38;nan;101088.22;5004577;28;19921;-31
2022/12/14 01:26:10;;;;;;;;;;;;;;;1.39;nan;101086.41;5005953;28;20049;-31
2022/12/14 01:28:36;;;;;;;;;;;;;;;1.40;nan;101083.59;5006755;28;19961;-31
2022/12/14 01:31:12;;;;;;;;;;;;;;;1.41;nan;101084.41;5006345;28;19960;-31
2022/12/14 01:33:38;;;;;;;;;;;;;;;1.39;nan;101081.94;5005059;28;19918;-31
2022/12/14 01:36:04;;;;;;;;;;;;;;;1.38;nan;101080.31;5006645;28;19917;-31
2022/12/14 01:38:30;;;;;;;;;;;;;;;1.36;nan;101071.75;5006116;28;19956;-31
2022/12/14 01:40:59;;;;;;;;;;;;;;;1.33;nan;101073.94;5006659;28;19967;-31
2022/12/14 01:43:24;;;;;;;;;;;;;;;1.28;nan;101071.84;5005695;28;19991;-30
2022/12/14 01:45:52;;;;;;;;;;;;;;;1.25;nan;101072.19;5006543;28;20432;-31
2022/12/14 01:48:17;;;;;;;;;;;;;;;1.20;nan;101064.00;5006660;28;20074;-31
2022/12/14 01:50:44;;;;;;;;;;;;;;;1.17;nan;101067.00;5004289;28;19928;-31
2022/12/14 01:53:12;;;;;;;;;;;;;;;1.16;nan;101062.72;5005857;28;19971;-31
2022/12/14 01:55:40;;;;;;;;;;;;;;;1.12;nan;101059.63;5006303;28;19975;-31
2022/12/14 01:58:25;;;;;;;;;;;;;;;1.11;nan;101057.16;5006241;28;20199;-31
2022/12/14 02:00:54;;;;;;;;;;;;;;;1.09;nan;101061.78;5006093;28;19948;-31
2022/12/14 02:03:24;;;;;;;;;;;;;;;1.08;nan;101053.06;5005492;28;19964;-31
2022/12/14 02:05:52;;;;;;;;;;;;;;;1.05;nan;101057.84;5006703;28;19921;-31
2022/12/14 02:08:19;;;;;;;;;;;;;;;1.01;nan;101049.47;5006508;28;19976;-31
2022/12/14 02:10:46;;;;;;;;;;;;;;;1.00;nan;101054.94;5006897;28;20364;-31
2022/12/14 02:13:15;;;;;;;;;;;;;;;0.97;nan;101044.75;5005779;28;19949;-31
2022/12/14 02:15:42;;;;;;;;;;;;;;;0.95;nan;101047.56;5005952;28;19925;-31
2022/12/14 02:18:08;;;;;;;;;;;;;;;0.96;nan;101036.00;5006350;28;19972;-31
2022/12/14 02:20:39;;;;;;;;;;;;;;;0.99;nan;101042.75;5003931;28;19917;-31
2022/12/14 02:23:23;;;;;;;;;;;;;;;0.99;nan;101032.19;5005707;28;19917;-31
2022/12/14 02:25:51;;;;;;;;;;;;;;;1.00;nan;101025.91;5009111;28;19917;-31
2022/12/14 02:28:46;;;;;;;;;;;;;;;1.03;nan;101030.81;5009828;28;19921;-31
2022/12/14 02:31:27;;;;;;;;;;;;;;;1.01;nan;101020.44;4999731;28;20458;-31
2022/12/14 02:33:56;;;;;;;;;;;;;;;1.01;nan;101015.16;5009364;28;19921;-31
2022/12/14 02:36:32;;;;;;;;;;;;;;;1.03;nan;101012.34;5010260;28;19918;-31
2022/12/14 02:38:58;;;;;;;;;;;;;;;1.04;nan;101012.16;5008256;28;19921;-31
2022/12/14 02:41:41;;;;;;;;;;;;;;;1.06;nan;101006.72;5008934;28;19948;-31
2022/12/14 02:44:30;;;;;;;;;;;;;;;1.05;nan;101005.91;5006422;28;19956;-31
2022/12/14 02:47:08;;;;;;;;;;;;;;;1.04;nan;101009.53;5001532;28;19917;-31
2022/12/14 02:49:52;;;;;;;;;;;;;;;1.02;nan;101008.91;5009170;28;20180;-31
2022/12/14 02:52:37;;;;;;;;;;;;;;;1.02;nan;101013.34;5010084;28;19932;-31
2022/12/14 02:55:14;;;;;;;;;;;;;;;0.98;nan;101004.16;5009029;28;19964;-31
2022/12/14 02:58:03;;;;;;;;;;;;;;;0.94;nan;101002.88;5007801;28;19929;-31
2022/12/14 03:00:31;;;;;;;;;;;;;;;0.91;nan;101009.34;4979868;28;19918;-31
2022/12/14 03:02:56;;;;;;;;;;;;;;;0.89;nan;101012.13;5007323;28;20427;-31
2022/12/14 03:05:22;;;;;;;;;;;;;;;0.88;nan;101009.69;5009487;28;19917;-31
2022/12/14 03:07:53;;;;;;;;;;;;;;;0.85;nan;101016.13;5009146;28;19944;-30
2022/12/14 03:10:34;;;;;;;;;;;;;;;0.84;nan;101022.41;5008750;28;20012;-31
2022/12/14 03:13:05;;;;;;;;;;;;;;;0.84;nan;101014.50;5008636;28;19917;-31
2022/12/14 03:15:32;;;;;;;;;;;;;;;0.84;nan;101013.69;5009151;28;20292;-31
2022/12/14 03:17:59;;;;;;;;;;;;;;;0.83;nan;101002.31;5008297;28;19921;-31
2022/12/14 03:20:25;;;;;;;;;;;;;;;0.76;nan;101004.03;5009414;28;20403;-31
2022/12/14 03:22:53;;;;;;;;;;;;;;;0.73;nan;101014.94;5007454;28;20629;-31
2022/12/14 03:25:45;;;;;;;;;;;;;;;0.69;nan;101015.44;5009188;28;20377;-31
2022/12/14 03:28:25;;;;;;;;;;;;;;;0.68;nan;101013.81;5004607;28;19926;-31
2022/12/14 03:30:57;;;;;;;;;;;;;;;0.65;nan;101011.53;5008503;28;19940;-31
2022/12/14 03:33:23;;;;;;;;;;;;;;;0.61;nan;101005.78;5007332;28;19917;-31
2022/12/14 03:35:54;;;;;;;;;;;;;;;0.60;nan;101010.25;5007383;28;19954;-31
2022/12/14 03:38:32;;;;;;;;;;;;;;;0.61;nan;101013.69;5008659;28;20327;-31
2022/12/14 03:41:03;;;;;;;;;;;;;;;0.62;nan;101012.69;5008727;28;19997;-31
2022/12/14 03:43:37;;;;;;;;;;;;;;;0.60;nan;101007.59;5007848;28;19921;-31
2022/12/14 03:46:02;;;;;;;;;;;;;;;0.58;nan;101016.69;5008565;28;19940;-30
2022/12/14 03:48:31;;;;;;;;;;;;;;;0.55;nan;101007.31;5007844;28;20373;-31
2022/12/14 03:50:59;;;;;;;;;;;;;;;0.57;nan;101007.16;5007038;28;19917;-31
2022/12/14 03:53:35;;;;;;;;;;;;;;;0.57;nan;101007.97;5009011;28;19925;-31
2022/12/14 03:56:10;;;;;;;;;;;;;;;0.57;nan;101007.97;5008254;28;20292;-31
2022/12/14 03:58:35;;;;;;;;;;;;;;;0.55;nan;101007.31;5006999;28;20408;-31
2022/12/14 04:01:03;;;;;;;;;;;;;;;0.55;nan;101002.06;5006159;28;19921;-31
2022/12/14 04:03:39;;;;;;;;;;;;;;;0.53;nan;100995.28;5007802;28;19917;-31
2022/12/14 04:06:13;;;;;;;;;;;;;;;0.51;nan;100995.47;5008835;28;19917;-31
2022/12/14 04:08:40;;;;;;;;;;;;;;;0.47;nan;100986.28;5007230;28;19929;-31
2022/12/14 04:20:01;;;;;;;;;;;;;;;0.40;nan;100979.25;5008229;28;19928;-31
2022/12/14 04:22:29;;;;;;;;;;;;;;;0.37;nan;100971.72;5007091;28;19972;-31
2022/12/14 04:27:47;;;;;;;;;;;;;;;0.40;nan;100969.53;5006123;28;19945;-31
2022/12/14 04:30:13;;;;;;;;;;;;;;;0.38;nan;100966.25;5007781;28;20291;-31
2022/12/14 04:32:47;;;;;;;;;;;;;;;0.34;nan;100970.22;5007558;28;19965;-30
2022/12/14 04:35:32;;;;;;;;;;;;;;;0.28;nan;100955.94;5006240;28;20364;-31
2022/12/14 04:38:11;;;;;;;;;;;;;;;0.23;nan;100958.28;5006508;28;20419;-31
2022/12/14 04:40:52;;;;;;;;;;;;;;;0.19;nan;100951.75;5007593;28;19918;-31
2022/12/14 04:43:19;;;;;;;;;;;;;;;0.15;nan;100950.41;5007297;28;19959;-30
2022/12/14 04:45:51;;;;;;;;;;;;;;;0.16;nan;100945.97;5006025;28;20576;-30
2022/12/14 04:48:25;;;;;;;;;;;;;;;0.18;nan;100939.56;5004636;28;19928;-31
2022/12/14 04:50:57;;;;;;;;;;;;;;;0.13;nan;100943.69;5007801;28;20536;-31
2022/12/14 04:53:25;;;;;;;;;;;;;;;0.15;nan;100928.53;5006764;28;20285;-31
2022/12/14 04:55:55;;;;;;;;;;;;;;;0.15;nan;100928.53;5007482;28;19926;-30
2022/12/14 04:58:23;;;;;;;;;;;;;;;0.13;nan;100923.44;5006370;28;19921;-30
2022/12/14 05:00:58;;;;;;;;;;;;;;;0.10;nan;100915.88;5004314;28;19924;-30
2022/12/14 05:03:29;;;;;;;;;;;;;;;0.10;nan;100926.41;5006239;28;19924;-31
2022/12/14 05:05:54;;;;;;;;;;;;;;;0.07;nan;100924.16;5006340;28;19964;-31
2022/12/14 05:08:35;;;;;;;;;;;;;;;0.06;nan;100919.06;5007528;28;19968;-30
2022/12/14 05:11:05;;;;;;;;;;;;;;;0.06;nan;100911.97;5007700;28;19921;-30
2022/12/14 05:13:36;;;;;;;;;;;;;;;0.04;nan;100913.97;5006742;28;19918;-30
2022/12/14 05:16:02;;;;;;;;;;;;;;;0.03;nan;100909.69;5007554;28;19923;-31
2022/12/14 05:18:27;;;;;;;;;;;;;;;0.01;nan;100910.88;5004625;28;19922;-30
2022/12/14 05:20:52;;;;;;;;;;;;;;;0.00;nan;100912.69;5006736;28;19922;-31
2022/12/14 05:23:18;;;;;;;;;;;;;;;-0.01;nan;100911.81;5006871;28;19988;-31
2022/12/14 05:25:43;;;;;;;;;;;;;;;-0.02;nan;100907.56;5006823;28;20064;-31
2022/12/14 05:28:09;;;;;;;;;;;;;;;0.00;nan;100904.78;5006739;28;20299;-30
2022/12/14 05:30:34;;;;;;;;;;;;;;;-0.01;nan;100909.19;5006473;28;19917;-30
2022/12/14 05:33:00;;;;;;;;;;;;;;;-0.01;nan;100898.66;5004375;28;19921;-30
2022/12/14 05:35:25;;;;;;;;;;;;;;;0.00;nan;100896.88;5006791;28;19952;-31
2022/12/14 05:37:51;;;;;;;;;;;;;;;0.02;nan;100894.88;5006428;28;19925;-31
2022/12/14 05:40:16;;;;;;;;;;;;;;;0.04;nan;100889.44;5006504;28;19972;-30
2022/12/14 05:42:41;;;;;;;;;;;;;;;0.04;nan;100890.25;5006341;28;19921;-31
2022/12/14 05:45:08;;;;;;;;;;;;;;;0.01;nan;100884.53;5005870;28;19924;-30
2022/12/14 05:47:33;;;;;;;;;;;;;;;-0.04;nan;100885.84;5006036;28;19921;-30
2022/12/14 05:49:59;;;;;;;;;;;;;;;-0.09;nan;100884.75;5006986;28;20270;-30
2022/12/14 05:52:25;;;;;;;;;;;;;;;-0.13;nan;100879.00;5006031;28;19918;-30
2022/12/14 05:54:50;;;;;;;;;;;;;;;-0.14;nan;100884.44;5005367;28;20016;-30
2022/12/14 05:57:16;;;;;;;;;;;;;;;-0.10;nan;100881.28;5006315;28;20013;-31
2022/12/14 05:59:41;;;;;;;;;;;;;;;-0.11;nan;100876.19;5007155;28;19984;-30
2022/12/14 06:02:06;;;;;;;;;;;;;;;-0.14;nan;100881.81;5010008;28;19953;-31
2022/12/14 06:04:32;;;;;;;;;;;;;;;-0.16;nan;100873.28;5006946;28;19984;-30
2022/12/14 06:06:57;;;;;;;;;;;;;;;-0.12;nan;100875.38;5008769;28;19917;-30
2022/12/14 06:09:22;;;;;;;;;;;;;;;-0.12;nan;100877.19;5007948;28;19921;-30
2022/12/14 06:11:48;;;;;;;;;;;;;;;-0.15;nan;100875.72;5005744;28;19925;-30
2022/12/14 06:14:14;;;;;;;;;;;;;;;-0.15;nan;100872.28;5008587;28;19928;-30
2022/12/14 06:16:40;;;;;;;;;;;;;;;-0.19;nan;100878.88;5008440;28;19925;-30
2022/12/14 06:19:06;;;;;;;;;;;;;;;-0.17;nan;100876.91;5007976;28;19917;-30
2022/12/14 06:21:33;;;;;;;;;;;;;;;-0.21;nan;100883.50;5009421;28;20291;-30
2022/12/14 06:23:58;;;;;;;;;;;;;;;-0.25;nan;100877.75;5007028;28;19921;-31
2022/12/14 06:26:25;;;;;;;;;;;;;;;-0.25;nan;100876.94;5008317;28;19917;-30
2022/12/14 06:28:50;;;;;;;;;;;;;;;-0.27;nan;100871.03;5007157;28;19980;-30
2022/12/14 06:31:26;;;;;;;;;;;;;;;-0.27;nan;100874.47;5008304;28;19925;-31
2022/12/14 06:33:53;;;;;;;;;;;;;;;-0.26;nan;100864.78;5006554;28;19986;-31
2022/12/14 06:36:23;;;;;;;;;;;;;;;-0.27;nan;100863.94;5006038;28;20015;-30
2022/12/14 06:38:55;;;;;;;;;;;;;;;-0.27;nan;100863.13;5003836;28;19922;-30
2022/12/14 06:41:22;;;;;;;;;;;;;;;-0.28;nan;100857.03;5007261;28;20048;-30
2022/12/14 06:43:48;;;;;;;;;;;;;;;-0.31;nan;100858.22;5008686;28;19971;-30
2022/12/14 06:46:14;;;;;;;;;;;;;;;-0.32;nan;100853.94;5007741;28;20044;-30
2022/12/14 06:48:40;;;;;;;;;;;;;;;-0.36;nan;100855.31;5007254;28;20027;-31
2022/12/14 06:51:06;;;;;;;;;;;;;;;-0.37;nan;100851.00;5007680;28;20059;-31
2022/12/14 06:53:31;;;;;;;;;;;;;;;-0.36;nan;100857.09;5006393;28;19972;-30
2022/12/14 06:56:04;;;;;;;;;;;;;;;-0.36;nan;100857.94;5005397;28;20343;-31
2022/12/14 06:58:29;;;;;;;;;;;;;;;-0.36;nan;100852.66;5005754;28;20421;-30
2022/12/14 07:00:54;;;;;;;;;;;;;;;-0.34;nan;100858.56;5007556;28;19921;-30
2022/12/14 07:03:20;;;;;;;;;;;;;;;-0.33;nan;100851.50;5008209;28;19929;-31
2022/12/14 07:05:45;;;;;;;;;;;;;;;-0.35;nan;100854.31;5007633;28;19917;-30
2022/12/14 07:08:10;;;;;;;;;;;;;;;-0.38;nan;100857.25;5007240;28;20169;-30
2022/12/14 07:10:36;;;;;;;;;;;;;;;-0.40;nan;100845.28;5007644;28;19986;-30
2022/12/14 07:13:01;;;;;;;;;;;;;;;-0.42;nan;100845.44;5009425;28;19967;-30
2022/12/14 07:15:26;;;;;;;;;;;;;;;-0.42;nan;100850.72;5009465;28;19991;-30
2022/12/14 07:17:52;;;;;;;;;;;;;;;-0.43;nan;100838.53;5008925;28;19926;-33
2022/12/14 07:20:17;;;;;;;;;;;;;;;-0.49;nan;100847.16;5009563;28;19933;-33
2022/12/14 07:22:43;;;;;;;;;;;;;;;-0.51;nan;100835.97;5008993;28;20520;-33
2022/12/14 07:25:09;;;;;;;;;;;;;;;-0.53;nan;100837.97;5009427;28;19944;-33
2022/12/14 07:27:34;;;;;;;;;;;;;;;-0.51;nan;100838.59;5008524;28;20159;-33
2022/12/14 07:29:59;;;;;;;;;;;;;;;-0.49;nan;100833.97;5009247;28;19922;-33
2022/12/14 07:32:25;;;;;;;;;;;;;;;-0.49;nan;100833.97;5009107;28;20192;-34
2022/12/14 07:34:50;;;;;;;;;;;;;;;-0.49;nan;100830.53;5009458;28;19921;-33
2022/12/14 07:37:15;;;;;;;;;;;;;;;-0.49;nan;100826.09;5008859;28;20157;-32
2022/12/14 07:39:41;;;;;;;;;;;;;;;-0.49;nan;100826.09;5008463;28;19925;-33
2022/12/14 07:42:06;;;;;;;;;;;;;;;-0.46;nan;100835.44;5009062;28;19924;-33
2022/12/14 07:44:32;;;;;;;;;;;;;;;-0.44;nan;100831.63;5008850;28;19918;-35
2022/12/14 07:46:57;;;;;;;;;;;;;;;-0.41;nan;100827.84;5008481;28;19976;-33
2022/12/14 07:49:22;;;;;;;;;;;;;;;-0.40;nan;100830.28;5008492;28;20211;-33
2022/12/14 07:51:48;;;;;;;;;;;;;;;-0.37;nan;100823.84;5008316;28;20017;-33
2022/12/14 07:54:13;;;;;;;;;;;;;;;-0.39;nan;100826.66;5008490;28;20103;-32
2022/12/14 07:56:40;;;;;;;;;;;;;;;-0.36;nan;100826.34;5008546;28;20048;-33
2022/12/14 07:59:07;;;;;;;;;;;;;;;-0.39;nan;100826.66;5008053;28;20377;-33
2022/12/14 08:01:33;;;;;;;;;;;;;;;-0.33;nan;100825.97;5008370;28;20365;-34
2022/12/14 08:04:00;;;;;;;;;;;;;;;-0.28;nan;100824.63;5008609;28;19936;-33
2022/12/14 08:06:26;;;;;;;;;;;;;;;-0.23;nan;100830.19;5008449;28;19918;-33
2022/12/14 08:08:52;;;;;;;;;;;;;;;-0.19;nan;100824.38;5006925;28;20078;-35
2022/12/14 08:11:21;;;;;;;;;;;;;;;-0.16;nan;100829.31;5008669;28;19968;-33
2022/12/14 08:13:46;;;;;;;;;;;;;;;-0.16;nan;100821.44;5008165;28;20011;-33
2022/12/14 08:16:13;;;;;;;;;;;;;;;-0.11;nan;100815.63;5008278;28;20143;-32
2022/12/14 08:18:38;;;;;;;;;;;;;;;-0.06;nan;100826.44;5007332;28;19920;-33
2022/12/14 08:21:04;;;;;;;;;;;;;;;-0.03;nan;100820.81;5007328;28;19917;-32
2022/12/14 08:23:30;;;;;;;;;;;;;;;0.00;nan;100820.47;5007913;28;20012;-33
2022/12/14 08:25:56;;;;;;;;;;;;;;;0.07;nan;100816.13;5007472;28;20011;-34
2022/12/14 08:28:22;;;;;;;;;;;;;;;0.12;nan;100811.13;5008044;28;20277;-35
2022/12/14 08:30:48;;;;;;;;;;;;;;;0.14;nan;100816.22;5007775;28;19917;-32
2022/12/14 08:33:13;;;;;;;;;;;;;;;0.18;nan;100812.22;5008023;28;19932;-33
2022/12/14 08:35:38;;;;;;;;;;;;;;;0.16;nan;100815.03;5007359;28;19924;-32
2022/12/14 08:38:04;;;;;;;;;;;;;;;0.17;nan;100810.59;5008029;28;19969;-33
2022/12/14 08:40:29;;;;;;;;;;;;;;;0.19;nan;100814.72;5007814;28;19928;-33
2022/12/14 08:42:54;;;;;;;;;;;;;;;0.26;nan;100807.72;5007079;28;19929;-33
2022/12/14 08:45:20;;;;;;;;;;;;;;;0.38;nan;100808.13;5008065;28;20015;-33
2022/12/14 08:47:45;;;;;;;;;;;;;;;0.48;nan;100813.09;5007032;28;19971;-32
2022/12/14 08:50:10;;;;;;;;;;;;;;;0.57;nan;100812.84;5007419;28;19918;-33
2022/12/14 08:52:37;;;;;;;;;;;;;;;0.64;nan;100802.38;5007230;28;20336;-33
2022/12/14 08:55:03;;;;;;;;;;;;;;;0.69;nan;100802.66;5007613;28;19979;-33
2022/12/14 08:57:28;;;;;;;;;;;;;;;0.78;nan;100798.13;5007206;28;19949;-33
2022/12/14 08:59:54;;;;;;;;;;;;;;;0.89;nan;100795.81;5008007;28;19921;-34
2022/12/14 09:02:19;;;;;;;;;;;;;;;0.98;nan;100791.28;5007103;28;20047;-33
2022/12/14 09:04:45;;;;;;;;;;;;;;;1.07;nan;100794.63;5006684;28;20459;-32
2022/12/14 09:07:10;;;;;;;;;;;;;;;1.13;nan;100794.72;5007027;28;19921;-33
2022/12/14 09:09:36;;;;;;;;;;;;;;;1.19;nan;100791.31;5006886;28;19925;-33
2022/12/14 09:12:05;;;;;;;;;;;;;;;1.24;nan;100790.75;5007583;28;19996;-34
2022/12/14 09:14:30;;;;;;;;;;;;;;;1.26;nan;100796.69;5006968;28;20516;-33
2022/12/14 09:16:56;;;;;;;;;;;;;;;1.32;nan;100781.94;5007010;28;20004;-34
2022/12/14 09:19:22;;;;;;;;;;;;;;;1.39;nan;100786.25;5007138;28;19918;-35
2022/12/14 09:21:47;;;;;;;;;;;;;;;1.50;nan;100780.50;5007130;28;19940;-33
2022/12/14 09:24:12;;;;;;;;;;;;;;;1.58;nan;100778.72;5007055;28;19947;-33
2022/12/14 09:26:38;;;;;;;;;;;;;;;1.64;nan;100772.72;5006719;28;20004;-33
2022/12/14 09:29:03;;;;;;;;;;;;;;;1.68;nan;100769.50;5006181;28;20167;-33
2022/12/14 09:31:28;;;;;;;;;;;;;;;1.75;nan;100774.81;5007191;28;20344;-33
2022/12/14 09:33:54;;;;;;;;;;;;;;;1.79;nan;100768.16;5006303;28;20365;-33
2022/12/14 09:36:20;;;;;;;;;;;;;;;1.88;nan;100776.78;5007553;28;20436;-33
2022/12/14 09:38:46;;;;;;;;;;;;;;;1.96;nan;100771.34;5004589;28;20017;-34
2022/12/14 09:41:30;;;;;;;;;;;;;;;1.99;nan;100760.41;5007129;28;20063;-32
2022/12/14 09:44:04;;;;;;;;;;;;;;;2.07;nan;100762.91;5006737;28;19928;-34
2022/12/14 09:46:30;;;;;;;;;;;;;;;2.11;nan;100754.41;5006083;28;20018;-33
2022/12/14 09:48:56;;;;;;;;;;;;;;;2.22;nan;100761.00;5005286;28;20674;-33
2022/12/14 09:51:24;;;;;;;;;;;;;;;2.31;nan;100757.16;5007003;28;20377;-34
2022/12/14 09:53:53;;;;;;;;;;;;;;;2.42;nan;100747.91;5006960;28;19927;-33
2022/12/14 09:56:19;;;;;;;;;;;;;;;2.49;nan;100745.28;5007503;28;20471;-33
2022/12/14 09:58:51;;;;;;;;;;;;;;;2.54;nan;100745.53;5006297;28;20017;-34
2022/12/14 10:01:20;;;;;;;;;;;;;;;2.64;nan;100744.13;5007228;28;19953;-33
2022/12/14 10:03:56;;;;;;;;;;;;;;;2.70;nan;100738.09;5006498;28;19921;-33
2022/12/14 10:06:25;;;;;;;;;;;;;;;2.78;nan;100728.34;5006913;28;19917;-36
2022/12/14 10:08:57;;;;;;;;;;;;;;;2.83;nan;100726.72;5006347;28;20399;-33
2022/12/14 10:11:36;;;;;;;;;;;;;;;2.93;nan;100732.47;5007515;28;19918;-35
2022/12/14 10:14:04;;;;;;;;;;;;;;;3.07;nan;100728.03;5006379;28;20319;-33
2022/12/14 10:16:35;;;;;;;;;;;;;;;3.22;nan;100725.22;5006378;28;19925;-33
2022/12/14 10:19:07;;;;;;;;;;;;;;;3.31;nan;100724.84;5006250;28;19922;-33
2022/12/14 10:21:45;;;;;;;;;;;;;;;3.40;nan;100717.50;5006616;28;19936;-35
2022/12/14 10:24:16;;;;;;;;;;;;;;;3.53;nan;100722.81;5005674;28;20443;-33
2022/12/14 10:26:45;;;;;;;;;;;;;;;3.61;nan;100721.84;5006133;28;20063;-33
2022/12/14 10:29:20;;;;;;;;;;;;;;;3.71;nan;100713.47;5006096;28;19932;-33
2022/12/14 10:32:03;;;;;;;;;;;;;;;3.81;nan;100716.53;5006342;28;19917;-33
2022/12/14 10:34:29;;;;;;;;;;;;;;;3.90;nan;100718.75;5006699;28;19917;-33
2022/12/14 10:37:18;;;;;;;;;;;;;;;4.02;nan;100707.53;5005915;28;20028;-34
2022/12/14 10:40:08;;;;;;;;;;;;;;;4.12;nan;100700.78;5000120;28;19936;-33
2022/12/14 10:42:33;;;;;;;;;;;;;;;4.26;nan;100698.91;5005945;28;20012;-34
2022/12/14 10:45:01;;;;;;;;;;;;;;;4.39;nan;100688.28;5010023;28;20003;-33
2022/12/14 10:47:36;;;;;;;;;;;;;;;4.54;nan;100680.91;5009842;28;20373;-33
2022/12/14 10:50:17;;;;;;;;;;;;;;;4.62;nan;100674.53;5010880;28;20380;-31
2022/12/14 10:52:44;;;;;;;;;;;;;;;4.68;nan;100675.53;5009286;28;20308;-31
2022/12/14 10:55:29;;;;;;;;;;;;;;;4.71;nan;100677.75;5009793;28;19953;-31
2022/12/14 10:57:55;;;;;;;;;;;;;;;4.81;nan;100678.13;5008408;28;20301;-31
2022/12/14 11:00:20;;;;;;;;;;;;;;;4.89;nan;100679.72;5009734;28;19921;-31
2022/12/14 11:02:52;;;;;;;;;;;;;;;4.98;nan;100679.25;5009284;28;19917;-31
2022/12/14 11:05:26;;;;;;;;;;;;;;;5.11;nan;100671.22;5010367;28;19917;-31
2022/12/14 11:07:51;;;;;;;;;;;;;;;5.20;nan;100668.28;5009589;28;19949;-31
2022/12/14 11:10:19;;;;;;;;;;;;;;;5.24;nan;100669.50;5009965;28;19963;-31
2022/12/14 11:12:59;;;;;;;;;;;;;;;5.32;nan;100663.91;5009003;28;19929;-31
2022/12/14 11:15:30;;;;;;;;;;;;;;;5.44;nan;100659.56;5009874;28;19972;-31
2022/12/14 11:18:02;;;;;;;;;;;;;;;5.44;nan;100655.03;5009012;28;19921;-31
2022/12/14 11:20:27;;;;;;;;;;;;;;;5.43;nan;100652.59;5006812;28;19921;-31
2022/12/14 11:23:03;;;;;;;;;;;;;;;5.50;nan;100656.00;5009071;28;19947;-31
2022/12/14 11:25:32;;;;;;;;;;;;;;;5.59;nan;100649.41;5009112;28;19932;-31
2022/12/14 11:27:58;;;;;;;;;;;;;;;5.69;nan;100644.41;5008861;28;20373;-31
2022/12/14 11:30:24;;;;;;;;;;;;;;;5.81;nan;100647.16;5009471;28;20008;-31
2022/12/14 11:32:50;;;;;;;;;;;;;;;5.92;nan;100638.47;5009401;28;20270;-31
2022/12/14 11:35:16;;;;;;;;;;;;;;;6.02;nan;100630.00;5009301;28;19936;-31
2022/12/14 11:37:42;;;;;;;;;;;;;;;6.11;nan;100628.69;5002548;28;19929;-31
2022/12/14 11:40:18;;;;;;;;;;;;;;;6.20;nan;100624.69;5003114;28;19917;-31
2022/12/14 11:42:54;;;;;;;;;;;;;;;6.31;nan;100626.63;4998073;28;19951;-31
2022/12/14 11:45:25;;;;;;;;;;;;;;;6.39;nan;100620.16;5002692;28;19925;-31
2022/12/14 11:48:11;;;;;;;;;;;;;;;6.47;nan;100613.75;5005148;28;19932;-31
2022/12/14 11:50:36;;;;;;;;;;;;;;;6.56;nan;100613.19;4992853;28;19925;-31
2022/12/14 11:53:05;;;;;;;;;;;;;;;6.63;nan;100610.44;5003500;28;20466;-31
2022/12/14 11:55:32;;;;;;;;;;;;;;;6.68;nan;100607.13;5002517;28;19922;-31
2022/12/14 11:57:58;;;;;;;;;;;;;;;6.73;nan;100599.25;5004638;28;20312;-31
2022/12/14 12:00:25;;;;;;;;;;;;;;;6.83;nan;100608.34;4986053;28;19918;-31
2022/12/14 12:03:01;;;;;;;;;;;;;;;6.89;nan;100602.09;5003708;28;20016;-31
2022/12/14 12:05:29;;;;;;;;;;;;;;;6.98;nan;100600.72;5005449;28;19980;-31
2022/12/14 12:07:55;;;;;;;;;;;;;;;6.98;nan;100598.06;4997005;28;19932;-31
2022/12/14 12:10:38;;;;;;;;;;;;;;;7.05;nan;100599.84;5002091;28;19933;-31
2022/12/14 12:13:05;;;;;;;;;;;;;;;7.11;nan;100599.72;5004525;28;20296;-32
2022/12/14 12:15:36;;;;;;;;;;;;;;;7.18;nan;100595.13;5001638;28;19921;-31
2022/12/14 12:18:04;;;;;;;;;;;;;;;7.26;nan;100589.44;4997899;28;19928;-31
2022/12/14 12:20:36;;;;;;;;;;;;;;;7.28;nan;100589.22;5003193;28;19922;-31
2022/12/14 12:23:06;;;;;;;;;;;;;;;7.15;nan;100592.06;5003452;28;19921;-31
2022/12/14 12:25:33;;;;;;;;;;;;;;;7.00;nan;100587.16;4997978;28;20036;-32
2022/12/14 12:28:06;;;;;;;;;;;;;;;6.84;nan;100593.19;5001227;28;19922;-31
2022/12/14 12:30:33;;;;;;;;;;;;;;;6.68;nan;100589.31;5004812;28;20012;-32
2022/12/14 12:33:04;;;;;;;;;;;;;;;6.50;nan;100587.50;5002701;28;20304;-32
2022/12/14 12:35:41;;;;;;;;;;;;;;;6.36;nan;100584.19;5000534;28;19925;-32
2022/12/14 12:38:13;;;;;;;;;;;;;;;6.25;nan;100589.44;5002460;28;19921;-31
2022/12/14 12:40:47;;;;;;;;;;;;;;;6.19;nan;100587.66;4998885;28;20016;-32
2022/12/14 12:43:25;;;;;;;;;;;;;;;6.10;nan;100589.81;5004989;28;20312;-32
2022/12/14 12:45:59;;;;;;;;;;;;;;;6.07;nan;100598.22;4998368;28;19953;-32
2022/12/14 12:48:35;;;;;;;;;;;;;;;5.98;nan;100591.59;5000341;28;20142;-31
2022/12/14 12:51:02;;;;;;;;;;;;;;;5.89;nan;100595.53;5004113;28;19990;-32
2022/12/14 12:53:37;;;;;;;;;;;;;;;5.81;nan;100593.19;4995396;28;19921;-31
2022/12/14 12:56:05;;;;;;;;;;;;;;;5.74;nan;100590.56;5004353;28;20353;-32
2022/12/14 12:58:32;;;;;;;;;;;;;;;5.69;nan;100591.25;5002086;28;20483;-31
2022/12/14 13:01:00;;;;;;;;;;;;;;;5.65;nan;100589.25;4996780;28;19975;-32
2022/12/14 13:03:36;;;;;;;;;;;;;;;5.64;nan;100587.63;4998532;28;20548;-32
2022/12/14 13:06:08;;;;;;;;;;;;;;;5.85;nan;100591.69;5000684;28;19956;-32
2022/12/14 13:08:38;;;;;;;;;;;;;;;7.00;nan;100591.69;5001070;28;19926;-32
2022/12/14 13:11:08;;;;;;;;;;;;;;;8.37;nan;100590.28;5001708;28;19917;-32
2022/12/14 13:13:34;;;;;;;;;;;;;;;9.49;nan;100588.75;5002499;28;19921;-32
2022/12/14 13:16:14;;;;;;;;;;;;;;;10.22;nan;100583.09;4998537;28;19918;-32
2022/12/14 13:18:42;;;;;;;;;;;;;;;10.67;nan;100578.50;4997832;28;19917;-32
2022/12/14 13:21:26;;;;;;;;;;;;;;;10.93;nan;100575.00;5002889;28;20008;-32
2022/12/14 13:23:52;;;;;;;;;;;;;;;11.12;nan;100575.44;5002319;28;19980;-33
2022/12/14 13:26:35;;;;;;;;;;;;;;;11.19;nan;100582.22;5003561;28;19925;-32